createdAt,value
2023-02-22T00:00:45.084Z,65.33
2023-02-22T00:03:12.328Z,65.35
2023-02-22T00:05:39.579Z,65.19
2023-02-22T00:08:09.594Z,65.40
2023-02-22T00:10:38.523Z,65.06
2023-02-22T00:13:07.221Z,64.98
2023-02-22T00:15:34.389Z,65.13
2023-02-22T00:18:01.275Z,64.82
2023-02-22T00:20:28.161Z,64.83
2023-02-22T00:22:55.212Z,64.90
2023-02-22T00:25:23.855Z,64.93
2023-02-22T00:27:53.985Z,64.92
2023-02-22T00:30:26.875Z,65.12
2023-02-22T00:32:56.026Z,65.30
2023-02-22T00:35:24.564Z,64.98
2023-02-22T00:37:52.401Z,65.05
2023-02-22T00:40:24.986Z,65.05
2023-02-22T00:42:52.098Z,65.10
2023-02-22T00:45:21.200Z,65.20
2023-02-22T00:47:48.355Z,65.06
2023-02-22T00:50:16.618Z,65.28
2023-02-22T00:52:43.495Z,65.16
2023-02-22T00:55:11.623Z,65.36
2023-02-22T00:57:38.452Z,65.38
2023-02-22T01:00:12.083Z,65.19
2023-02-22T01:02:42.588Z,65.25
2023-02-22T01:05:12.630Z,65.27
2023-02-22T01:07:40.317Z,65.27
2023-02-22T01:10:08.958Z,65.34
2023-02-22T01:12:36.217Z,65.35
2023-02-22T01:15:04.186Z,65.61
2023-02-22T01:17:31.030Z,65.38
2023-02-22T01:19:58.178Z,65.47
2023-02-22T01:22:24.883Z,65.60
2023-02-22T01:24:51.767Z,65.71
2023-02-22T01:27:18.534Z,65.95
2023-02-22T01:29:45.312Z,65.97
2023-02-22T01:32:12.340Z,65.73
2023-02-22T01:34:39.303Z,66.06
2023-02-22T01:37:08.864Z,65.85
2023-02-22T01:39:35.750Z,66.01
2023-02-22T01:42:02.530Z,65.97
2023-02-22T01:44:29.284Z,66.04
2023-02-22T01:46:57.043Z,65.91
2023-02-22T01:49:25.260Z,66.06
2023-02-22T01:51:53.309Z,65.99
2023-02-22T01:54:31.906Z,66.34
2023-02-22T01:57:06.382Z,66.60
2023-02-22T01:59:34.785Z,66.90
2023-02-22T02:02:01.632Z,67.18
2023-02-22T02:04:28.441Z,67.09
2023-02-22T02:06:56.854Z,67.25
2023-02-22T02:09:31.356Z,67.41
2023-02-22T02:12:01.051Z,67.08
2023-02-22T02:14:27.785Z,66.97
2023-02-22T02:16:56.334Z,66.77
2023-02-22T02:19:41.367Z,67.03
2023-02-22T02:22:29.268Z,66.96
2023-02-22T02:25:20.841Z,66.89
2023-02-22T02:28:06.132Z,66.73
2023-02-22T02:30:54.645Z,66.90
2023-02-22T02:34:05.763Z,66.81
2023-02-22T02:36:46.734Z,66.64
2023-02-22T02:39:36.574Z,66.73
2023-02-22T02:42:04.480Z,66.70
2023-02-22T02:44:41.581Z,66.74
2023-02-22T02:47:14.730Z,66.61
2023-02-22T02:49:48.611Z,66.73
2023-02-22T02:52:16.263Z,66.89
2023-02-22T02:54:43.098Z,66.88
2023-02-22T02:57:10.371Z,66.95
2023-02-22T02:59:37.870Z,66.96
2023-02-22T03:02:40.290Z,67.19
2023-02-22T03:05:54.634Z,67.16
2023-02-22T03:08:39.755Z,67.20
2023-02-22T03:11:17.340Z,67.34
2023-02-22T03:14:02.451Z,67.38
2023-02-22T03:16:52.303Z,67.37
2023-02-22T03:19:28.348Z,67.32
2023-02-22T03:22:00.869Z,67.52
2023-02-22T03:24:31.300Z,67.63
2023-02-22T03:27:03.162Z,67.50
2023-02-22T03:29:35.630Z,67.67
2023-02-22T03:32:03.122Z,67.56
2023-02-22T03:34:33.615Z,67.53
2023-02-22T03:37:03.528Z,67.33
2023-02-22T03:39:33.067Z,67.48
2023-02-22T03:42:20.292Z,67.60
2023-02-22T03:44:47.166Z,67.36
2023-02-22T03:47:20.789Z,67.46
2023-02-22T03:49:51.830Z,67.47
2023-02-22T03:52:18.930Z,67.25
2023-02-22T03:54:45.859Z,67.30
2023-02-22T03:57:16.343Z,67.26
2023-02-22T03:59:43.134Z,67.14
2023-02-22T04:02:09.872Z,67.16
2023-02-22T04:04:36.814Z,67.27
2023-02-22T04:07:03.606Z,67.49
2023-02-22T04:09:30.353Z,67.58
2023-02-22T04:11:57.146Z,67.50
2023-02-22T04:14:24.034Z,67.58
2023-02-22T04:16:50.858Z,67.64
2023-02-22T04:19:17.781Z,67.82
2023-02-22T04:21:44.594Z,67.84
2023-02-22T04:24:11.935Z,67.70
2023-02-22T04:26:38.903Z,67.74
2023-02-22T04:29:05.671Z,67.73
2023-02-22T04:31:33.836Z,67.45
2023-02-22T04:34:01.537Z,67.69
2023-02-22T04:36:28.400Z,67.83
2023-02-22T04:38:55.247Z,67.73
2023-02-22T04:41:24.423Z,67.87
2023-02-22T04:43:52.158Z,67.70
2023-02-22T04:46:18.923Z,67.62
2023-02-22T04:48:45.795Z,67.54
2023-02-22T04:51:13.362Z,67.60
2023-02-22T04:53:40.625Z,67.72
2023-02-22T04:56:07.693Z,67.58
2023-02-22T04:58:34.403Z,67.47
2023-02-22T05:01:01.164Z,67.52
2023-02-22T05:03:28.064Z,67.68
2023-02-22T05:05:54.802Z,67.90
2023-02-22T05:08:21.551Z,67.73
2023-02-22T05:10:48.393Z,67.82
2023-02-22T05:13:15.735Z,67.87
2023-02-22T05:15:42.535Z,68.06
2023-02-22T05:18:09.718Z,67.74
2023-02-22T05:20:36.767Z,67.81
2023-02-22T05:23:03.784Z,67.83
2023-02-22T05:25:30.708Z,67.71
2023-02-22T05:28:03.458Z,67.76
2023-02-22T05:30:32.639Z,67.61
2023-02-22T05:33:00.110Z,67.80
2023-02-22T05:35:27.151Z,67.79
2023-02-22T05:37:54.105Z,67.82
2023-02-22T05:40:22.311Z,67.92
2023-02-22T05:42:50.128Z,67.93
2023-02-22T05:45:18.112Z,67.89
2023-02-22T05:47:45.290Z,67.86
2023-02-22T05:50:12.180Z,67.94
2023-02-22T05:52:39.214Z,67.83
2023-02-22T05:55:06.833Z,68.15
2023-02-22T05:57:33.667Z,67.85
2023-02-22T06:00:00.715Z,67.74
2023-02-22T06:02:27.455Z,67.94
2023-02-22T06:04:54.229Z,67.80
2023-02-22T06:07:21.091Z,67.86
2023-02-22T06:09:47.840Z,67.90
2023-02-22T06:12:14.689Z,67.75
2023-02-22T06:14:46.066Z,67.78
2023-02-22T06:17:13.949Z,67.81
2023-02-22T06:19:40.797Z,67.69
2023-02-22T06:22:07.805Z,67.80
2023-02-22T06:24:34.676Z,67.81
2023-02-22T06:27:02.386Z,67.70
2023-02-22T06:29:29.824Z,67.82
2023-02-22T06:31:57.173Z,67.97
2023-02-22T06:34:23.932Z,67.99
2023-02-22T06:36:50.771Z,67.99
2023-02-22T06:39:18.966Z,67.99
2023-02-22T06:41:46.493Z,68.08
2023-02-22T06:44:14.359Z,67.91
2023-02-22T06:46:41.275Z,67.99
2023-02-22T06:49:08.213Z,68.27
2023-02-22T06:51:38.053Z,68.07
2023-02-22T06:54:04.713Z,68.16
2023-02-22T06:56:31.421Z,67.80
2023-02-22T06:58:58.311Z,68.00
2023-02-22T07:01:25.045Z,68.14
2023-02-22T07:03:51.766Z,68.08
2023-02-22T07:06:18.740Z,68.04
2023-02-22T07:08:45.531Z,67.98
2023-02-22T07:11:12.377Z,68.08
2023-02-22T07:13:39.826Z,68.02
2023-02-22T07:16:06.889Z,68.17
2023-02-22T07:18:33.714Z,68.19
2023-02-22T07:21:00.621Z,68.29
2023-02-22T07:23:27.383Z,68.36
2023-02-22T07:25:54.201Z,68.23
2023-02-22T07:28:21.038Z,68.24
2023-02-22T07:30:47.974Z,68.48
2023-02-22T07:33:14.759Z,68.68
2023-02-22T07:35:48.987Z,68.79
2023-02-22T07:38:16.840Z,68.80
2023-02-22T07:40:43.832Z,68.89
2023-02-22T07:43:19.149Z,68.87
2023-02-22T07:45:46.306Z,69.01
2023-02-22T07:48:13.478Z,68.89
2023-02-22T07:50:40.941Z,69.00
2023-02-22T07:53:14.216Z,69.01
2023-02-22T07:55:41.057Z,69.18
2023-02-22T07:58:08.602Z,69.17
2023-02-22T08:00:39.526Z,69.26
2023-02-22T08:03:11.029Z,69.28
2023-02-22T08:05:38.449Z,69.04
2023-02-22T08:08:06.222Z,69.23
2023-02-22T08:10:33.664Z,69.01
2023-02-22T08:13:00.441Z,69.04
2023-02-22T08:15:31.925Z,69.44
2023-02-22T08:17:59.310Z,69.53
2023-02-22T08:20:26.172Z,69.68
2023-02-22T08:22:53.136Z,69.86
2023-02-22T08:25:20.930Z,69.70
2023-02-22T08:27:47.884Z,69.89
2023-02-22T08:30:19.552Z,69.80
2023-02-22T08:32:47.380Z,69.82
2023-02-22T08:35:15.202Z,69.70
2023-02-22T08:37:44.094Z,69.80
2023-02-22T08:40:13.916Z,69.90
2023-02-22T08:42:41.522Z,69.83
2023-02-22T08:45:08.866Z,69.82
2023-02-22T08:47:35.813Z,69.72
2023-02-22T08:50:02.731Z,69.60
2023-02-22T08:52:29.501Z,69.53
2023-02-22T08:54:56.382Z,69.53
2023-02-22T08:57:23.098Z,69.61
2023-02-22T08:59:49.895Z,69.57
2023-02-22T09:02:18.237Z,69.33
2023-02-22T09:04:45.041Z,69.38
2023-02-22T09:07:11.911Z,69.49
2023-02-22T09:09:38.771Z,69.59
2023-02-22T09:12:05.846Z,69.23
2023-02-22T09:14:32.586Z,69.15
2023-02-22T09:16:59.546Z,69.13
2023-02-22T09:19:26.318Z,69.01
2023-02-22T09:21:54.460Z,69.08
2023-02-22T09:24:21.450Z,68.94
2023-02-22T09:26:48.252Z,68.77
2023-02-22T09:29:14.981Z,68.33
2023-02-22T09:31:42.105Z,68.16
2023-02-22T09:34:17.638Z,68.03
2023-02-22T09:36:46.359Z,67.72
2023-02-22T09:39:13.481Z,67.19
2023-02-22T09:42:12.827Z,67.22
2023-02-22T09:45:01.761Z,66.72
2023-02-22T09:47:46.859Z,66.79
2023-02-22T09:50:18.429Z,66.46
2023-02-22T09:53:07.408Z,65.97
2023-02-22T09:55:41.318Z,65.90
2023-02-22T09:58:35.656Z,65.96
2023-02-22T10:01:29.749Z,65.77
2023-02-22T10:04:20.255Z,65.64
2023-02-22T10:06:56.043Z,65.52
2023-02-22T10:09:25.844Z,65.66
2023-02-22T10:11:55.523Z,65.42
2023-02-22T10:14:22.106Z,65.32
2023-02-22T10:17:00.126Z,65.39
2023-02-22T10:19:32.582Z,65.71
2023-02-22T10:22:20.941Z,65.75
2023-02-22T10:25:05.009Z,66.02
2023-02-22T10:27:39.234Z,66.27
2023-02-22T10:30:26.381Z,66.24
2023-02-22T10:33:00.785Z,65.96
2023-02-22T10:35:30.020Z,65.92
2023-02-22T10:37:59.614Z,65.47
2023-02-22T10:40:32.371Z,65.02
2023-02-22T10:43:02.721Z,64.63
2023-02-22T10:45:32.943Z,64.50
2023-02-22T10:48:01.905Z,64.48
2023-02-22T10:50:29.717Z,64.58
2023-02-22T10:52:56.603Z,64.36
2023-02-22T10:55:23.446Z,64.07
2023-02-22T10:57:51.825Z,63.86
2023-02-22T11:00:26.537Z,63.66
2023-02-22T11:02:57.565Z,63.63
2023-02-22T11:05:29.616Z,63.82
2023-02-22T11:08:22.965Z,63.21
2023-02-22T11:10:55.076Z,63.59
2023-02-22T11:13:37.956Z,62.98
2023-02-22T11:16:16.988Z,62.91
2023-02-22T11:18:43.779Z,62.69
2023-02-22T11:21:11.795Z,62.93
2023-02-22T11:23:40.628Z,63.06
2023-02-22T11:26:09.926Z,63.38
2023-02-22T11:28:37.312Z,63.20
2023-02-22T11:31:13.644Z,62.36
2023-02-22T11:33:40.526Z,62.46
2023-02-22T11:36:09.476Z,62.05
2023-02-22T11:38:38.010Z,62.87
2023-02-22T11:41:11.761Z,64.01
2023-02-22T11:43:38.727Z,64.42
2023-02-22T11:46:08.519Z,63.50
2023-02-22T11:48:37.116Z,63.56
2023-02-22T11:51:14.469Z,63.10
2023-02-22T11:53:57.586Z,60.73
2023-02-22T11:56:40.677Z,57.37
2023-02-22T11:59:15.624Z,55.40
2023-02-22T12:01:51.747Z,54.58
2023-02-22T12:04:38.245Z,52.72
2023-02-22T12:07:44.930Z,52.58
2023-02-22T12:10:20.530Z,52.24
2023-02-22T12:12:59.525Z,52.17
2023-02-22T12:15:58.196Z,52.09
2023-02-22T12:18:33.211Z,52.17
2023-02-22T12:21:06.722Z,52.47
2023-02-22T12:23:36.563Z,52.75
2023-02-22T12:26:23.234Z,52.85
2023-02-22T12:29:14.824Z,52.97
2023-02-22T12:31:51.155Z,53.96
2023-02-22T12:34:41.619Z,54.45
2023-02-22T12:37:14.224Z,55.10
2023-02-22T12:39:56.808Z,56.09
2023-02-22T12:42:35.556Z,57.03
2023-02-22T12:45:11.692Z,57.57
2023-02-22T12:47:43.009Z,58.69
2023-02-22T12:50:16.076Z,61.26
2023-02-22T12:53:01.055Z,65.88
2023-02-22T12:55:34.114Z,66.71
2023-02-22T12:58:09.555Z,65.33
2023-02-22T13:00:51.686Z,64.45
2023-02-22T13:03:33.482Z,63.20
2023-02-22T13:06:12.188Z,62.78
2023-02-22T13:09:03.924Z,62.38
2023-02-22T13:11:44.129Z,61.66
2023-02-22T13:14:35.713Z,62.07
2023-02-22T13:17:21.345Z,61.38
2023-02-22T13:20:01.735Z,60.69
2023-02-22T13:22:42.494Z,60.17
2023-02-22T13:25:11.418Z,59.76
2023-02-22T13:27:44.238Z,59.83
2023-02-22T13:30:20.563Z,60.07
2023-02-22T13:33:00.755Z,59.61
2023-02-22T13:35:42.831Z,59.49
2023-02-22T13:38:31.032Z,59.48
2023-02-22T13:41:05.050Z,59.07
2023-02-22T13:43:54.232Z,59.19
2023-02-22T13:46:26.770Z,59.08
2023-02-22T13:49:21.112Z,59.28
2023-02-22T13:51:55.820Z,59.46
2023-02-22T13:54:47.962Z,59.86
2023-02-22T13:57:19.050Z,60.21
2023-02-22T13:59:47.363Z,60.82
2023-02-22T14:02:55.667Z,60.82
2023-02-22T14:05:41.790Z,60.94
2023-02-22T14:08:19.246Z,60.68
2023-02-22T14:10:46.370Z,60.07
2023-02-22T14:13:14.129Z,60.11
2023-02-22T14:16:05.161Z,60.22
2023-02-22T14:18:42.403Z,60.23
2023-02-22T14:21:25.111Z,60.58
2023-02-22T14:23:53.099Z,60.46
2023-02-22T14:26:34.769Z,60.44
2023-02-22T14:29:08.016Z,60.50
2023-02-22T14:32:01.722Z,61.28
2023-02-22T14:34:49.694Z,60.74
2023-02-22T14:37:27.457Z,61.01
2023-02-22T14:39:59.141Z,60.93
2023-02-22T14:42:29.530Z,60.90
2023-02-22T14:45:03.340Z,60.48
2023-02-22T14:47:44.079Z,60.57
2023-02-22T14:50:19.522Z,60.40
2023-02-22T14:52:46.804Z,60.26
2023-02-22T14:55:24.887Z,60.39
2023-02-22T14:58:18.894Z,60.50
2023-02-22T15:00:52.887Z,60.73
2023-02-22T15:03:22.651Z,60.81
2023-02-22T15:05:52.837Z,60.88
2023-02-22T15:08:28.104Z,60.31
2023-02-22T15:10:55.018Z,60.78
2023-02-22T15:13:27.820Z,60.54
2023-02-22T15:16:01.862Z,59.83
2023-02-22T15:18:40.602Z,59.82
2023-02-22T15:21:13.219Z,59.51
2023-02-22T15:23:42.931Z,59.73
2023-02-22T15:26:37.602Z,59.22
2023-02-22T15:29:09.690Z,59.41
2023-02-22T15:31:39.006Z,59.13
2023-02-22T15:34:14.932Z,58.83
2023-02-22T15:36:42.828Z,58.93
2023-02-22T15:39:19.966Z,58.67
2023-02-22T15:41:46.902Z,58.29
2023-02-22T15:44:23.326Z,58.22
2023-02-22T15:46:51.089Z,57.98
2023-02-22T15:49:19.713Z,58.22
2023-02-22T15:51:49.207Z,58.03
2023-02-22T15:54:26.458Z,58.19
2023-02-22T15:56:56.835Z,57.70
2023-02-22T15:59:29.703Z,57.21
2023-02-22T16:01:56.714Z,57.03
2023-02-22T16:04:24.840Z,56.61
2023-02-22T16:06:52.542Z,56.67
2023-02-22T16:09:26.119Z,56.95
2023-02-22T16:12:22.296Z,57.09
2023-02-22T16:14:49.203Z,57.70
2023-02-22T16:17:31.315Z,58.17
2023-02-22T16:19:59.719Z,58.14
2023-02-22T16:22:34.613Z,57.97
2023-02-22T16:25:20.295Z,58.60
2023-02-22T16:28:34.165Z,58.56
2023-02-22T16:31:01.291Z,58.25
2023-02-22T16:33:34.646Z,58.67
2023-02-22T16:36:06.365Z,58.32
2023-02-22T16:38:33.581Z,59.06
2023-02-22T16:41:00.530Z,58.92
2023-02-22T16:43:33.013Z,59.24
2023-02-22T16:46:03.782Z,59.13
2023-02-22T16:48:32.741Z,59.13
2023-02-22T16:51:06.788Z,59.16
2023-02-22T16:53:33.653Z,58.93
2023-02-22T16:56:04.988Z,59.29
2023-02-22T16:58:37.127Z,59.33
2023-02-22T17:01:03.993Z,59.11
2023-02-22T17:03:30.748Z,58.96
2023-02-22T17:05:57.676Z,58.88
2023-02-22T17:08:24.560Z,58.84
2023-02-22T17:10:51.887Z,58.85
2023-02-22T17:13:26.673Z,59.32
2023-02-22T17:15:56.739Z,59.65
2023-02-22T17:18:23.956Z,59.33
2023-02-22T17:20:51.413Z,59.14
2023-02-22T17:23:18.260Z,58.80
2023-02-22T17:26:00.001Z,58.50
2023-02-22T17:28:27.016Z,58.52
2023-02-22T17:30:54.755Z,58.20
2023-02-22T17:33:27.349Z,58.48
2023-02-22T17:35:55.160Z,58.54
2023-02-22T17:38:23.031Z,58.38
2023-02-22T17:40:52.184Z,58.47
2023-02-22T17:43:19.586Z,58.64
2023-02-22T17:45:46.647Z,58.74
2023-02-22T17:48:14.299Z,58.83
2023-02-22T17:50:41.818Z,59.05
2023-02-22T17:53:11.053Z,59.25
2023-02-22T17:55:39.426Z,59.37
2023-02-22T17:58:06.410Z,59.91
2023-02-22T18:00:37.043Z,59.84
2023-02-22T18:03:08.841Z,59.98
2023-02-22T18:05:40.306Z,60.09
2023-02-22T18:08:07.091Z,60.03
2023-02-22T18:10:33.927Z,60.11
2023-02-22T18:13:04.331Z,60.45
2023-02-22T18:15:35.821Z,60.23
2023-02-22T18:18:05.939Z,60.78
2023-02-22T18:20:38.453Z,61.00
2023-02-22T18:23:08.937Z,61.08
2023-02-22T18:25:36.041Z,61.20
2023-02-22T18:28:04.803Z,61.76
2023-02-22T18:30:31.712Z,61.46
2023-02-22T18:32:58.610Z,61.57
2023-02-22T18:35:25.463Z,61.79
2023-02-22T18:37:52.331Z,61.81
2023-02-22T18:40:19.300Z,61.57
2023-02-22T18:42:46.976Z,61.54
2023-02-22T18:45:13.861Z,61.40
2023-02-22T18:47:42.306Z,61.42
2023-02-22T18:50:10.093Z,61.06
2023-02-22T18:52:45.870Z,61.16
2023-02-22T18:55:17.854Z,61.04
2023-02-22T18:57:45.198Z,61.01
2023-02-22T19:00:13.816Z,61.00
2023-02-22T19:02:43.941Z,60.80
2023-02-22T19:05:11.890Z,60.72
2023-02-22T19:07:38.831Z,60.62
2023-02-22T19:10:06.438Z,60.28
2023-02-22T19:12:33.972Z,60.14
2023-02-22T19:15:00.895Z,60.14
2023-02-22T19:17:28.773Z,59.97
2023-02-22T19:19:55.938Z,59.82
2023-02-22T19:22:26.153Z,59.79
2023-02-22T19:24:56.253Z,59.61
2023-02-22T19:27:23.593Z,59.79
2023-02-22T19:29:50.506Z,59.81
2023-02-22T19:32:17.781Z,59.60
2023-02-22T19:34:44.709Z,59.61
2023-02-22T19:37:13.258Z,59.50
2023-02-22T19:39:42.501Z,59.45
2023-02-22T19:42:10.412Z,59.35
2023-02-22T19:44:37.575Z,59.24
2023-02-22T19:47:09.149Z,59.22
2023-02-22T19:49:37.534Z,59.13
2023-02-22T19:52:06.643Z,58.98
2023-02-22T19:54:33.501Z,59.15
2023-02-22T19:57:00.655Z,59.22
2023-02-22T19:59:27.518Z,59.12
2023-02-22T20:01:55.983Z,59.28
2023-02-22T20:04:23.287Z,59.32
2023-02-22T20:06:54.131Z,59.29
2023-02-22T20:09:39.741Z,59.03
2023-02-22T20:12:06.961Z,58.53
2023-02-22T20:14:34.528Z,58.49
2023-02-22T20:17:01.666Z,58.42
2023-02-22T20:19:28.567Z,58.50
2023-02-22T20:22:00.465Z,58.34
2023-02-22T20:24:27.994Z,58.11
2023-02-22T20:26:56.651Z,58.07
2023-02-22T20:29:29.839Z,57.89
2023-02-22T20:31:58.046Z,57.90
2023-02-22T20:34:26.128Z,57.80
2023-02-22T20:36:53.244Z,57.68
2023-02-22T20:39:20.044Z,57.42
2023-02-22T20:41:47.142Z,57.32
2023-02-22T20:44:18.370Z,57.28
2023-02-22T20:46:45.329Z,57.37
2023-02-22T20:49:17.517Z,57.26
2023-02-22T20:51:44.914Z,57.08
2023-02-22T20:54:12.450Z,56.98
2023-02-22T20:56:43.707Z,56.90
2023-02-22T20:59:15.285Z,56.80
2023-02-22T21:01:42.449Z,56.76
2023-02-22T21:04:10.207Z,56.50
2023-02-22T21:06:37.654Z,56.35
2023-02-22T21:09:07.366Z,56.58
2023-02-22T21:11:36.201Z,56.46
2023-02-22T21:14:03.345Z,56.61
2023-02-22T21:16:32.437Z,56.57
2023-02-22T21:19:00.829Z,56.42
2023-02-22T21:21:27.778Z,56.55
2023-02-22T21:23:55.609Z,56.49
2023-02-22T21:26:24.109Z,56.63
2023-02-22T21:28:52.060Z,56.61
2023-02-22T21:31:20.731Z,56.88
2023-02-22T21:33:52.130Z,56.42
2023-02-22T21:36:19.136Z,56.67
2023-02-22T21:38:47.599Z,56.64
2023-02-22T21:41:16.159Z,56.45
2023-02-22T21:43:44.173Z,56.63
2023-02-22T21:46:11.095Z,56.44
2023-02-22T21:48:45.305Z,56.55
2023-02-22T21:51:15.925Z,56.54
2023-02-22T21:53:46.585Z,56.49
2023-02-22T21:56:24.453Z,56.40
2023-02-22T21:58:59.414Z,56.45
2023-02-22T22:01:32.043Z,56.63
2023-02-22T22:04:00.331Z,56.58
2023-02-22T22:06:28.153Z,56.67
2023-02-22T22:08:55.151Z,56.51
2023-02-22T22:11:22.067Z,56.47
2023-02-22T22:13:49.363Z,56.41
2023-02-22T22:18:55.990Z,56.85
2023-02-22T22:21:23.865Z,56.57
2023-02-22T22:23:54.485Z,56.68
2023-02-22T22:26:21.888Z,56.74
2023-02-22T22:28:49.816Z,56.66
2023-02-22T22:31:17.418Z,56.73
2023-02-22T22:33:44.791Z,56.78
2023-02-22T22:36:12.877Z,56.73
2023-02-22T22:38:39.673Z,56.89
2023-02-22T22:41:10.587Z,56.92
2023-02-22T22:43:37.597Z,56.87
2023-02-22T22:46:05.606Z,56.81
2023-02-22T22:48:36.148Z,57.10
2023-02-22T22:51:06.816Z,57.04
2023-02-22T22:53:33.956Z,57.06
2023-02-22T22:56:03.943Z,57.01
2023-02-22T22:58:32.323Z,57.00
2023-02-22T23:01:01.532Z,56.85
2023-02-22T23:03:28.530Z,56.87
2023-02-22T23:05:55.411Z,56.91
2023-02-22T23:08:29.421Z,57.03
2023-02-22T23:10:57.160Z,57.21
2023-02-22T23:13:25.092Z,56.94
2023-02-22T23:15:54.832Z,57.09
2023-02-22T23:18:21.703Z,56.91
2023-02-22T23:20:55.166Z,57.22
2023-02-22T23:23:27.853Z,56.75
2023-02-22T23:26:18.361Z,56.91
2023-02-22T23:28:46.759Z,57.01
2023-02-22T23:31:15.603Z,56.77
2023-02-22T23:33:43.234Z,56.90
2023-02-22T23:36:12.632Z,56.99
2023-02-22T23:38:40.040Z,56.74
2023-02-22T23:41:09.016Z,56.91
2023-02-22T23:43:40.571Z,56.92
2023-02-22T23:46:12.159Z,57.03
2023-02-22T23:48:51.296Z,56.88
2023-02-22T23:51:20.754Z,56.87
2023-02-22T23:53:49.024Z,56.79
2023-02-22T23:56:21.132Z,56.74
2023-02-22T23:58:50.433Z,56.87
